DLH1785 EGLL-EBBR
Flight info
| Callsign | DLH1785 |
|---|---|
| Flight time | N/A |
| Altitude | 35000 |
| Route | BPK Q295 MATCH DCT REDFA DCT TACHA DCT NOLRU DCT DIXAT DIXAT1D WOODY |
| Aircraft | A21N/M-SDE2E3FGHIRWXY/LB1 |
Departure
| Time | N/A |
|---|---|
| Airport | London Heathrow Airport (EGLL) |
Arrival
| Time | 2026-05-07 20:29 |
|---|---|
| Airport | Brussels Airport (EBBR) |
| Time | Latitude | Longitude | Altitude | Speed | Heading |
|---|---|---|---|---|---|
| 2026-05-07 20:15 | 51.04175 | 4.58852 | 14924 ft | 290 kts | 208° |
| 2026-05-07 20:16 | 51.02316 | 4.57455 | 14971 ft | 295 kts | 208° |
| 2026-05-07 20:16 | 51.00490 | 4.56101 | 14951 ft | 290 kts | 202° |
| 2026-05-07 20:16 | 50.98486 | 4.55633 | 15048 ft | 296 kts | 182° |
| 2026-05-07 20:16 | 50.96487 | 4.56307 | 14945 ft | 289 kts | 153° |
| 2026-05-07 20:17 | 50.95394 | 4.57541 | 14463 ft | 288 kts | 135° |
| 2026-05-07 20:17 | 50.94392 | 4.60285 | 13310 ft | 299 kts | 100° |
| 2026-05-07 20:17 | 50.94482 | 4.63527 | 12477 ft | 293 kts | 66° |
| 2026-05-07 20:17 | 50.95600 | 4.66118 | 11614 ft | 285 kts | 35° |
| 2026-05-07 20:18 | 50.97262 | 4.67813 | 10798 ft | 282 kts | 25° |
| 2026-05-07 20:18 | 50.99011 | 4.69198 | 10080 ft | 278 kts | 22° |
| 2026-05-07 20:18 | 51.00750 | 4.70508 | 9346 ft | 275 kts | 22° |
| 2026-05-07 20:18 | 51.02471 | 4.71787 | 8630 ft | 272 kts | 22° |
| 2026-05-07 20:19 | 51.04183 | 4.73056 | 7919 ft | 269 kts | 22° |
| 2026-05-07 20:19 | 51.05873 | 4.74309 | 7203 ft | 267 kts | 22° |
| 2026-05-07 20:19 | 51.07543 | 4.75549 | 6500 ft | 264 kts | 22° |
| 2026-05-07 20:19 | 51.09205 | 4.76785 | 5803 ft | 261 kts | 22° |
| 2026-05-07 20:20 | 51.10656 | 4.78485 | 5125 ft | 265 kts | 55° |
| 2026-05-07 20:20 | 51.11185 | 4.81162 | 5045 ft | 247 kts | 86° |
| 2026-05-07 20:20 | 51.11179 | 4.83800 | 4911 ft | 235 kts | 91° |
| 2026-05-07 20:20 | 51.11132 | 4.86396 | 4472 ft | 237 kts | 91° |
| 2026-05-07 20:21 | 51.11028 | 4.88963 | 4116 ft | 234 kts | 104° |
| 2026-05-07 20:21 | 51.10195 | 4.91058 | 3902 ft | 219 kts | 144° |
| 2026-05-07 20:21 | 51.08887 | 4.92409 | 3930 ft | 227 kts | 152° |
| 2026-05-07 20:21 | 51.07524 | 4.93585 | 3921 ft | 225 kts | 166° |
| 2026-05-07 20:22 | 51.06043 | 4.93524 | 3807 ft | 209 kts | 205° |
| 2026-05-07 20:22 | 51.04853 | 4.92222 | 3315 ft | 209 kts | 226° |
| 2026-05-07 20:22 | 51.03866 | 4.90591 | 3115 ft | 195 kts | 228° |
| 2026-05-07 20:22 | 51.02947 | 4.89188 | 3000 ft | 176 kts | 226° |
| 2026-05-07 20:23 | 51.02073 | 4.87902 | 2917 ft | 169 kts | 226° |
| 2026-05-07 20:23 | 51.01182 | 4.86576 | 2927 ft | 172 kts | 226° |
| 2026-05-07 20:23 | 51.00283 | 4.85250 | 2931 ft | 180 kts | 226° |
| 2026-05-07 20:23 | 50.99702 | 4.83599 | 2916 ft | 178 kts | 265° |
| 2026-05-07 20:24 | 50.99888 | 4.81690 | 2915 ft | 174 kts | 283° |
| 2026-05-07 20:24 | 51.00174 | 4.79787 | 2917 ft | 174 kts | 282° |
| 2026-05-07 20:24 | 51.00319 | 4.77869 | 2906 ft | 178 kts | 263° |
| 2026-05-07 20:24 | 50.99680 | 4.76242 | 2920 ft | 182 kts | 225° |
| 2026-05-07 20:25 | 50.98808 | 4.74858 | 2920 ft | 178 kts | 231° |
| 2026-05-07 20:25 | 50.97998 | 4.73353 | 2921 ft | 178 kts | 232° |
| 2026-05-07 20:25 | 50.97227 | 4.71805 | 2912 ft | 179 kts | 242° |
| 2026-05-07 20:25 | 50.96774 | 4.69995 | 2921 ft | 178 kts | 252° |
| 2026-05-07 20:26 | 50.96358 | 4.68147 | 2775 ft | 177 kts | 250° |
| 2026-05-07 20:26 | 50.95868 | 4.66357 | 2571 ft | 177 kts | 247° |
| 2026-05-07 20:26 | 50.95375 | 4.64639 | 2349 ft | 163 kts | 248° |
| 2026-05-07 20:26 | 50.94932 | 4.63077 | 2125 ft | 149 kts | 248° |
| 2026-05-07 20:27 | 50.94524 | 4.61639 | 1881 ft | 138 kts | 248° |
| 2026-05-07 20:27 | 50.94131 | 4.60271 | 1640 ft | 134 kts | 247° |
| 2026-05-07 20:27 | 50.93746 | 4.58934 | 1429 ft | 131 kts | 248° |
| 2026-05-07 20:27 | 50.93367 | 4.57615 | 1262 ft | 132 kts | 247° |
| 2026-05-07 20:28 | 50.92992 | 4.56317 | 1081 ft | 131 kts | 248° |
| 2026-05-07 20:28 | 50.92672 | 4.55203 | 934 ft | 132 kts | 247° |
| 2026-05-07 20:28 | 50.92286 | 4.53865 | 763 ft | 132 kts | 247° |
| 2026-05-07 20:28 | 50.91904 | 4.52539 | 576 ft | 132 kts | 247° |
| 2026-05-07 20:29 | 50.91522 | 4.51204 | 361 ft | 134 kts | 246° |
| 2026-05-07 20:29 | 50.91138 | 4.49868 | 138 ft | 132 kts | 245° |
| 2026-05-07 20:29 | 50.90848 | 4.48864 | 113 ft | 60 kts | 245° |
| 2026-05-07 20:29 | 50.90765 | 4.48577 | 113 ft | 2 kts | 245° |
| 2026-05-07 20:30 | 50.90703 | 4.48411 | 117 ft | 19 kts | 233° |
| 2026-05-07 20:30 | 50.90621 | 4.48272 | 117 ft | 17 kts | 223° |
| 2026-05-07 20:30 | 50.90535 | 4.48169 | 120 ft | 12 kts | 215° |
| 2026-05-07 20:30 | 50.90505 | 4.48136 | 119 ft | 0 kts | 215° |
| 2026-05-07 20:32 | 50.90479 | 4.48108 | 121 ft | 8 kts | 215° |
| 2026-05-07 20:32 | 50.90450 | 4.48113 | 122 ft | 4 kts | 118° |
| 2026-05-07 20:33 | 50.90472 | 4.48199 | 121 ft | 15 kts | 65° |
| 2026-05-07 20:33 | 50.90517 | 4.48358 | 119 ft | 16 kts | 65° |
| 2026-05-07 20:33 | 50.90570 | 4.48541 | 117 ft | 20 kts | 65° |
| 2026-05-07 20:33 | 50.90633 | 4.48758 | 111 ft | 21 kts | 65° |
| 2026-05-07 20:34 | 50.90685 | 4.48942 | 110 ft | 17 kts | 66° |
| 2026-05-07 20:34 | 50.90690 | 4.49098 | 109 ft | 12 kts | 137° |
| 2026-05-07 20:34 | 50.90617 | 4.49158 | 115 ft | 12 kts | 155° |
| 2026-05-07 20:34 | 50.90542 | 4.49211 | 120 ft | 10 kts | 156° |
| 2026-05-07 20:35 | 50.90485 | 4.49252 | 127 ft | 8 kts | 156° |
| 2026-05-07 20:35 | 50.90414 | 4.49294 | 133 ft | 11 kts | 175° |
| 2026-05-07 20:35 | 50.90376 | 4.49230 | 134 ft | 8 kts | 248° |
| 2026-05-07 20:35 | 50.90353 | 4.49147 | 135 ft | 9 kts | 246° |
| 2026-05-07 20:36 | 50.90319 | 4.49032 | 136 ft | 14 kts | 245° |
| 2026-05-07 20:36 | 50.90281 | 4.48903 | 136 ft | 11 kts | 245° |
| 2026-05-07 20:36 | 50.90252 | 4.48802 | 135 ft | 11 kts | 246° |
| 2026-05-07 20:36 | 50.90221 | 4.48689 | 135 ft | 11 kts | 245° |
| 2026-05-07 20:37 | 50.90182 | 4.48590 | 135 ft | 10 kts | 216° |
| 2026-05-07 20:37 | 50.90125 | 4.48596 | 139 ft | 10 kts | 172° |
| 2026-05-07 20:37 | 50.90069 | 4.48621 | 143 ft | 6 kts | 158° |
| 2026-05-07 20:37 | 50.90045 | 4.48638 | 144 ft | 3 kts | 155° |
| 2026-05-07 20:38 | 50.90037 | 4.48644 | 144 ft | 0 kts | 155° |